Muren, Mongolia
Current Conditions -  °F | °C
As of 3:00 AM on Saturday 01 Nov 2014 (Local Time) from UIII Reporting Station
Smoke Smoke  
Wind Chill:   Ceiling: Unl
Heat Index: 16°   Visibility: 2.1mi
Dew Point: 12°   Wind: 4mph
Humidity: 86%   Direction: 90°E
Pressure: 30.09"   Gusts: NA
Location:  49.66°N, 100.1°E
Report Text: UIII 311900Z 09002MPS 3500 FU NSC M09/M11 Q1019 NOSIG RMKQFE722/0963 12CLRD60
Loading
Personal Weather Stations






























Interactive Weather Map
Tropical Storm Tracking
New forecast layout! Learn more

10-Day Weather Forecast

Advertisements
Track Severe Weather on mobile